AAL306 KJFK-KLAX
Flight info
| Callsign | AAL306 |
|---|---|
| Flight time | N/A |
| Altitude | 38000 |
| Route | RBV Q430 AIR J80 EMPTY/N0479F400 J80 MCI J24 SLN J102 ALS J44 RSK J64 TBC JASSE Q90 DNERO ANJLL4 |
| Aircraft | B772/H-SDE2E3FGHIJ5LORVWXY/LB1D1 |
Departure
| Time | N/A |
|---|---|
| Airport | John F. Kennedy International Airport (KJFK) |
Arrival
| Time | 2026-04-26 00:17 |
|---|---|
| Airport | Los Angeles International Airport (KLAX) |
| Time | Latitude | Longitude | Altitude | Speed | Heading |
|---|---|---|---|---|---|
| 2026-04-25 23:28 | 35.47586 | -113.62661 | 39750 ft | 400 kts | 247° |
| 2026-04-25 23:29 | 35.46519 | -113.65811 | 39762 ft | 400 kts | 247° |
| 2026-04-25 23:29 | 35.44382 | -113.72108 | 39788 ft | 399 kts | 247° |
| 2026-04-25 23:30 | 35.42242 | -113.78401 | 39806 ft | 400 kts | 247° |
| 2026-04-25 23:30 | 35.40097 | -113.84698 | 39830 ft | 400 kts | 247° |
| 2026-04-25 23:31 | 35.37949 | -113.90991 | 39844 ft | 400 kts | 247° |
| 2026-04-25 23:31 | 35.35809 | -113.97245 | 39854 ft | 400 kts | 247° |
| 2026-04-25 23:32 | 35.33687 | -114.03437 | 39850 ft | 400 kts | 247° |
| 2026-04-25 23:32 | 35.31533 | -114.09706 | 39821 ft | 399 kts | 246° |
| 2026-04-25 23:33 | 35.27008 | -114.22843 | 39781 ft | 399 kts | 246° |
| 2026-04-25 23:34 | 35.24845 | -114.29099 | 39755 ft | 400 kts | 246° |
| 2026-04-25 23:34 | 35.22677 | -114.35360 | 39724 ft | 400 kts | 246° |
| 2026-04-25 23:35 | 35.20506 | -114.41616 | 39727 ft | 400 kts | 246° |
| 2026-04-25 23:35 | 35.18334 | -114.47865 | 39712 ft | 396 kts | 246° |
| 2026-04-25 23:36 | 35.16549 | -114.52989 | 39721 ft | 393 kts | 246° |
| 2026-04-25 23:36 | 35.14404 | -114.59140 | 39718 ft | 394 kts | 246° |
| 2026-04-25 23:37 | 35.12254 | -114.65303 | 39724 ft | 394 kts | 246° |
| 2026-04-25 23:37 | 35.10112 | -114.71483 | 39722 ft | 395 kts | 246° |
| 2026-04-25 23:38 | 35.07968 | -114.77666 | 39726 ft | 396 kts | 246° |
| 2026-04-25 23:38 | 35.05815 | -114.83859 | 39702 ft | 395 kts | 246° |
| 2026-04-25 23:39 | 35.03667 | -114.90015 | 39716 ft | 393 kts | 245° |
| 2026-04-25 23:39 | 35.01242 | -114.95982 | 39723 ft | 392 kts | 242° |
| 2026-04-25 23:40 | 34.98684 | -115.01746 | 39740 ft | 392 kts | 242° |
| 2026-04-25 23:40 | 34.97409 | -115.04630 | 39724 ft | 380 kts | 242° |
| 2026-04-25 23:40 | 34.96187 | -115.07414 | 39714 ft | 365 kts | 242° |
| 2026-04-25 23:40 | 34.95016 | -115.10097 | 39713 ft | 354 kts | 242° |
| 2026-04-25 23:41 | 34.93866 | -115.12736 | 39717 ft | 352 kts | 242° |
| 2026-04-25 23:41 | 34.91585 | -115.17980 | 39730 ft | 353 kts | 242° |
| 2026-04-25 23:42 | 34.89276 | -115.23284 | 39732 ft | 355 kts | 242° |
| 2026-04-25 23:42 | 34.87001 | -115.28500 | 39708 ft | 342 kts | 242° |
| 2026-04-25 23:43 | 34.84769 | -115.33613 | 39730 ft | 341 kts | 242° |
| 2026-04-25 23:43 | 34.82539 | -115.38713 | 39725 ft | 344 kts | 242° |
| 2026-04-25 23:44 | 34.80287 | -115.43855 | 39720 ft | 345 kts | 242° |
| 2026-04-25 23:44 | 34.78137 | -115.49078 | 39719 ft | 345 kts | 245° |
| 2026-04-25 23:45 | 34.76200 | -115.54426 | 39717 ft | 345 kts | 245° |
| 2026-04-25 23:45 | 34.74267 | -115.59766 | 39721 ft | 345 kts | 245° |
| 2026-04-25 23:46 | 34.72314 | -115.65095 | 39723 ft | 344 kts | 245° |
| 2026-04-25 23:46 | 34.70357 | -115.70402 | 39723 ft | 344 kts | 245° |
| 2026-04-25 23:47 | 34.68398 | -115.75702 | 39714 ft | 344 kts | 245° |
| 2026-04-25 23:47 | 34.66441 | -115.80990 | 39716 ft | 343 kts | 245° |
| 2026-04-25 23:48 | 34.64494 | -115.86240 | 39706 ft | 343 kts | 244° |
| 2026-04-25 23:48 | 34.62535 | -115.91521 | 39714 ft | 342 kts | 245° |
| 2026-04-25 23:49 | 34.60588 | -115.96805 | 39731 ft | 343 kts | 245° |
| 2026-04-25 23:49 | 34.58662 | -116.02030 | 39734 ft | 343 kts | 245° |
| 2026-04-25 23:50 | 34.56719 | -116.07291 | 39719 ft | 343 kts | 244° |
| 2026-04-25 23:50 | 34.54763 | -116.12578 | 39719 ft | 343 kts | 244° |
| 2026-04-25 23:51 | 34.52806 | -116.17857 | 39708 ft | 343 kts | 244° |
| 2026-04-25 23:51 | 34.50864 | -116.23091 | 39557 ft | 334 kts | 244° |
| 2026-04-25 23:51 | 34.49911 | -116.25654 | 39090 ft | 334 kts | 244° |
| 2026-04-25 23:52 | 34.48952 | -116.28231 | 38542 ft | 337 kts | 244° |
| 2026-04-25 23:52 | 34.47984 | -116.30829 | 37905 ft | 339 kts | 244° |
| 2026-04-25 23:52 | 34.47012 | -116.33438 | 37234 ft | 341 kts | 243° |
| 2026-04-25 23:52 | 34.46030 | -116.36072 | 36598 ft | 343 kts | 243° |
| 2026-04-25 23:53 | 34.45044 | -116.38714 | 35991 ft | 345 kts | 243° |
| 2026-04-25 23:53 | 34.44056 | -116.41362 | 35382 ft | 346 kts | 243° |
| 2026-04-25 23:53 | 34.43060 | -116.44027 | 34705 ft | 349 kts | 243° |
| 2026-04-25 23:53 | 34.42043 | -116.46740 | 33961 ft | 362 kts | 243° |
| 2026-04-25 23:54 | 34.40949 | -116.49586 | 33154 ft | 382 kts | 241° |
| 2026-04-25 23:54 | 34.39757 | -116.52489 | 32541 ft | 381 kts | 241° |
| 2026-04-25 23:54 | 34.38555 | -116.55367 | 32010 ft | 384 kts | 241° |
| 2026-04-25 23:54 | 34.37356 | -116.58242 | 31658 ft | 380 kts | 241° |
| 2026-04-25 23:55 | 34.36174 | -116.61093 | 31073 ft | 377 kts | 241° |
| 2026-04-25 23:55 | 34.35023 | -116.63881 | 30539 ft | 374 kts | 241° |
| 2026-04-25 23:55 | 34.33866 | -116.66684 | 29981 ft | 371 kts | 241° |
| 2026-04-25 23:55 | 34.32724 | -116.69469 | 29372 ft | 369 kts | 241° |
| 2026-04-25 23:56 | 34.31604 | -116.72250 | 28782 ft | 367 kts | 242° |
| 2026-04-25 23:56 | 34.30497 | -116.75013 | 28245 ft | 365 kts | 242° |
| 2026-04-25 23:56 | 34.29396 | -116.77762 | 27708 ft | 361 kts | 242° |
| 2026-04-25 23:56 | 34.28301 | -116.80489 | 27163 ft | 358 kts | 242° |
| 2026-04-25 23:57 | 34.27216 | -116.83186 | 26638 ft | 356 kts | 242° |
| 2026-04-25 23:57 | 34.26134 | -116.85868 | 26103 ft | 354 kts | 242° |
| 2026-04-25 23:57 | 34.25060 | -116.88530 | 25621 ft | 350 kts | 241° |
| 2026-04-25 23:57 | 34.23997 | -116.91165 | 25100 ft | 347 kts | 241° |
| 2026-04-25 23:58 | 34.22943 | -116.93773 | 24585 ft | 343 kts | 241° |
| 2026-04-25 23:58 | 34.21898 | -116.96355 | 24080 ft | 341 kts | 241° |
| 2026-04-25 23:58 | 34.20888 | -116.98939 | 23563 ft | 340 kts | 245° |
| 2026-04-25 23:58 | 34.20111 | -117.01568 | 23027 ft | 340 kts | 249° |
| 2026-04-25 23:59 | 34.19419 | -117.04293 | 22469 ft | 338 kts | 250° |
| 2026-04-25 23:59 | 34.18731 | -117.07016 | 21963 ft | 338 kts | 249° |
| 2026-04-25 23:59 | 34.18020 | -117.09723 | 21435 ft | 337 kts | 249° |
| 2026-04-25 23:59 | 34.17309 | -117.12371 | 20960 ft | 335 kts | 248° |
| 2026-04-26 00:00 | 34.16585 | -117.15046 | 20457 ft | 333 kts | 249° |
| 2026-04-26 00:00 | 34.15861 | -117.17692 | 20007 ft | 331 kts | 248° |
| 2026-04-26 00:00 | 34.15137 | -117.20324 | 19580 ft | 330 kts | 248° |
| 2026-04-26 00:00 | 34.14417 | -117.22934 | 19081 ft | 329 kts | 248° |
| 2026-04-26 00:01 | 34.13691 | -117.25565 | 18594 ft | 325 kts | 248° |
| 2026-04-26 00:01 | 34.12990 | -117.28114 | 18084 ft | 319 kts | 248° |
| 2026-04-26 00:01 | 34.12279 | -117.30686 | 17559 ft | 326 kts | 248° |
| 2026-04-26 00:01 | 34.11563 | -117.33282 | 17047 ft | 321 kts | 248° |
| 2026-04-26 00:02 | 34.10861 | -117.35829 | 16572 ft | 319 kts | 248° |
| 2026-04-26 00:02 | 34.10174 | -117.38375 | 16111 ft | 319 kts | 249° |
| 2026-04-26 00:02 | 34.09545 | -117.40893 | 15621 ft | 312 kts | 250° |
| 2026-04-26 00:02 | 34.08919 | -117.43436 | 15164 ft | 312 kts | 250° |
| 2026-04-26 00:03 | 34.08309 | -117.45892 | 14723 ft | 307 kts | 249° |
| 2026-04-26 00:03 | 34.07692 | -117.48361 | 14294 ft | 307 kts | 250° |
| 2026-04-26 00:03 | 34.07035 | -117.50801 | 13879 ft | 304 kts | 246° |
| 2026-04-26 00:03 | 34.06227 | -117.53127 | 13439 ft | 291 kts | 244° |
| 2026-04-26 00:04 | 34.05391 | -117.55367 | 13055 ft | 294 kts | 243° |
| 2026-04-26 00:04 | 34.04553 | -117.57612 | 12689 ft | 295 kts | 244° |
| 2026-04-26 00:04 | 34.03725 | -117.59864 | 12323 ft | 294 kts | 244° |
| 2026-04-26 00:04 | 34.02904 | -117.62125 | 11948 ft | 294 kts | 244° |
| 2026-04-26 00:05 | 34.02099 | -117.64355 | 11586 ft | 290 kts | 244° |
| 2026-04-26 00:05 | 34.01296 | -117.66579 | 11233 ft | 289 kts | 244° |
| 2026-04-26 00:05 | 34.00595 | -117.68816 | 10847 ft | 276 kts | 255° |
| 2026-04-26 00:05 | 34.00375 | -117.71007 | 10524 ft | 251 kts | 261° |
| 2026-04-26 00:06 | 34.00208 | -117.73015 | 10219 ft | 232 kts | 261° |
| 2026-04-26 00:06 | 34.00033 | -117.74918 | 9960 ft | 227 kts | 260° |
| 2026-04-26 00:06 | 33.99854 | -117.76810 | 9693 ft | 228 kts | 259° |
| 2026-04-26 00:06 | 33.99671 | -117.78701 | 9387 ft | 232 kts | 260° |
| 2026-04-26 00:07 | 33.99477 | -117.80665 | 9068 ft | 234 kts | 260° |
| 2026-04-26 00:07 | 33.99296 | -117.82530 | 8756 ft | 223 kts | 261° |
| 2026-04-26 00:07 | 33.99116 | -117.84388 | 8514 ft | 223 kts | 261° |
| 2026-04-26 00:07 | 33.98936 | -117.86247 | 8254 ft | 225 kts | 261° |
| 2026-04-26 00:08 | 33.98756 | -117.88135 | 7920 ft | 227 kts | 262° |
| 2026-04-26 00:08 | 33.98624 | -117.90020 | 7604 ft | 224 kts | 262° |
| 2026-04-26 00:08 | 33.98476 | -117.91866 | 7338 ft | 219 kts | 261° |
| 2026-04-26 00:08 | 33.98310 | -117.93677 | 7061 ft | 216 kts | 261° |
| 2026-04-26 00:09 | 33.98134 | -117.95459 | 6792 ft | 214 kts | 261° |
| 2026-04-26 00:09 | 33.97950 | -117.97271 | 6532 ft | 221 kts | 261° |
| 2026-04-26 00:09 | 33.97763 | -117.99103 | 6248 ft | 219 kts | 262° |
| 2026-04-26 00:09 | 33.97580 | -118.00887 | 5962 ft | 221 kts | 262° |
| 2026-04-26 00:10 | 33.97392 | -118.02731 | 5683 ft | 222 kts | 261° |
| 2026-04-26 00:10 | 33.97202 | -118.04572 | 5383 ft | 218 kts | 261° |
| 2026-04-26 00:10 | 33.97015 | -118.06385 | 5115 ft | 218 kts | 262° |
| 2026-04-26 00:10 | 33.96830 | -118.08195 | 4834 ft | 217 kts | 261° |
| 2026-04-26 00:11 | 33.96644 | -118.10003 | 4558 ft | 218 kts | 261° |
| 2026-04-26 00:11 | 33.96456 | -118.11820 | 4269 ft | 219 kts | 261° |
| 2026-04-26 00:11 | 33.96267 | -118.13656 | 3965 ft | 222 kts | 261° |
| 2026-04-26 00:11 | 33.96081 | -118.15483 | 3744 ft | 211 kts | 261° |
| 2026-04-26 00:12 | 33.95914 | -118.17116 | 3549 ft | 190 kts | 262° |
| 2026-04-26 00:12 | 33.95759 | -118.18627 | 3321 ft | 174 kts | 262° |
| 2026-04-26 00:12 | 33.95612 | -118.20063 | 3118 ft | 171 kts | 261° |
| 2026-04-26 00:12 | 33.95466 | -118.21472 | 2885 ft | 168 kts | 261° |
| 2026-04-26 00:13 | 33.95323 | -118.22857 | 2647 ft | 165 kts | 261° |
| 2026-04-26 00:13 | 33.95182 | -118.24228 | 2426 ft | 165 kts | 261° |
| 2026-04-26 00:13 | 33.95043 | -118.25580 | 2208 ft | 163 kts | 261° |
| 2026-04-26 00:13 | 33.94908 | -118.26906 | 2005 ft | 152 kts | 261° |
| 2026-04-26 00:14 | 33.94784 | -118.28107 | 1792 ft | 137 kts | 261° |
| 2026-04-26 00:14 | 33.94667 | -118.29242 | 1625 ft | 136 kts | 261° |
| 2026-04-26 00:14 | 33.94558 | -118.30304 | 1465 ft | 120 kts | 261° |
| 2026-04-26 00:14 | 33.94456 | -118.31286 | 1292 ft | 121 kts | 261° |
| 2026-04-26 00:15 | 33.94352 | -118.32302 | 1119 ft | 120 kts | 261° |
| 2026-04-26 00:15 | 33.94254 | -118.33270 | 948 ft | 114 kts | 259° |
| 2026-04-26 00:15 | 33.94154 | -118.34222 | 801 ft | 113 kts | 261° |
| 2026-04-26 00:15 | 33.94058 | -118.35151 | 634 ft | 115 kts | 261° |
| 2026-04-26 00:16 | 33.93958 | -118.36137 | 486 ft | 119 kts | 263° |
| 2026-04-26 00:16 | 33.93856 | -118.37119 | 326 ft | 117 kts | 264° |
| 2026-04-26 00:16 | 33.93753 | -118.38057 | 175 ft | 111 kts | 262° |
| 2026-04-26 00:16 | 33.93665 | -118.38989 | 108 ft | 110 kts | 263° |
| 2026-04-26 00:17 | 33.93583 | -118.39777 | 100 ft | 76 kts | 263° |
| 2026-04-26 00:17 | 33.93536 | -118.40222 | 102 ft | 32 kts | 262° |
| 2026-04-26 00:17 | 33.93543 | -118.40463 | 101 ft | 26 kts | 281° |
| 2026-04-26 00:17 | 33.93593 | -118.40646 | 98 ft | 19 kts | 282° |
| 2026-04-26 00:18 | 33.93597 | -118.40776 | 100 ft | 13 kts | 274° |
| 2026-04-26 00:18 | 33.93600 | -118.40800 | 100 ft | 0 kts | 279° |
| 2026-04-26 00:18 | 33.93604 | -118.40826 | 99 ft | 10 kts | 281° |
| 2026-04-26 00:19 | 33.93663 | -118.40888 | 99 ft | 12 kts | 349° |
| 2026-04-26 00:19 | 33.93747 | -118.40907 | 98 ft | 12 kts | 352° |
| 2026-04-26 00:19 | 33.93766 | -118.40910 | 97 ft | 5 kts | 354° |
| 2026-04-26 00:19 | 33.93850 | -118.40911 | 98 ft | 6 kts | 15° |
| 2026-04-26 00:20 | 33.93870 | -118.40869 | 98 ft | 6 kts | 73° |
| 2026-04-26 00:20 | 33.93888 | -118.40824 | 99 ft | 6 kts | 45° |
| 2026-04-26 00:20 | 33.93929 | -118.40811 | 99 ft | 6 kts | 356° |
| 2026-04-26 00:20 | 33.93972 | -118.40818 | 98 ft | 6 kts | 352° |
| 2026-04-26 00:21 | 33.94001 | -118.40822 | 99 ft | 6 kts | 352° |
| 2026-04-26 00:21 | 33.94043 | -118.40829 | 100 ft | 6 kts | 352° |
| 2026-04-26 00:21 | 33.94086 | -118.40836 | 99 ft | 6 kts | 352° |
| 2026-04-26 00:21 | 33.94129 | -118.40842 | 98 ft | 6 kts | 353° |
| 2026-04-26 00:22 | 33.94159 | -118.40857 | 99 ft | 3 kts | 298° |
| 2026-04-26 00:22 | 33.94161 | -118.40883 | 99 ft | 4 kts | 261° |
| 2026-04-26 00:22 | 33.94157 | -118.40912 | 100 ft | 4 kts | 259° |
| 2026-04-26 00:22 | 33.94153 | -118.40943 | 101 ft | 0 kts | 263° |
| 2026-04-26 00:23 | 33.94153 | -118.40945 | 100 ft | 1 kts | 264° |
| 2026-04-26 00:23 | 33.94153 | -118.40951 | 100 ft | 0 kts | 264° |
| 2026-04-26 00:23 | 33.94153 | -118.40953 | 100 ft | 0 kts | 263° |